Terminal Aerodrome Forecast
Issued by NWS

Home | Current Version | Previous Version | Graphics & Text | Print | Product List | Glossary On
Versions: 1 2 3 4 5 6 7 8 9 10 11 12 13
000
FTUS43 KTOP 191100
TAFFOE
TAF
KFOE 191120Z 1912/2012 15011KT P6SM FEW250
     FM191500 18020G27KT P6SM BKN250
     FM200100 17011KT P6SM BKN250=

USA.gov is the U.S. government's official web portal to all federal, state and local government web resources and services.